sensor_id;sensor_type;location;lat;lon;timestamp;P1;durP1;ratioP1;P2;durP2;ratioP2
59042;SDS011;44826;51.596;5.624;2024-03-07T00:00:28;25.35;;;12.70;;
59042;SDS011;44826;51.596;5.624;2024-03-07T00:02:53;23.58;;;12.75;;
59042;SDS011;44826;51.596;5.624;2024-03-07T00:05:19;25.30;;;12.90;;
59042;SDS011;44826;51.596;5.624;2024-03-07T00:07:46;26.25;;;13.20;;
59042;SDS011;44826;51.596;5.624;2024-03-07T00:10:12;28.07;;;14.27;;
59042;SDS011;44826;51.596;5.624;2024-03-07T00:12:38;26.55;;;14.25;;
59042;SDS011;44826;51.596;5.624;2024-03-07T00:15:09;28.58;;;14.75;;
59042;SDS011;44826;51.596;5.624;2024-03-07T00:17:36;27.63;;;13.65;;
59042;SDS011;44826;51.596;5.624;2024-03-07T00:20:02;29.20;;;14.90;;
59042;SDS011;44826;51.596;5.624;2024-03-07T00:22:36;26.75;;;13.68;;
59042;SDS011;44826;51.596;5.624;2024-03-07T00:25:02;28.27;;;13.98;;
59042;SDS011;44826;51.596;5.624;2024-03-07T00:27:30;27.92;;;14.40;;
59042;SDS011;44826;51.596;5.624;2024-03-07T00:29:56;27.55;;;14.18;;
59042;SDS011;44826;51.596;5.624;2024-03-07T00:32:22;27.85;;;13.60;;
59042;SDS011;44826;51.596;5.624;2024-03-07T00:34:48;25.38;;;13.70;;
59042;SDS011;44826;51.596;5.624;2024-03-07T00:37:15;26.60;;;14.25;;
59042;SDS011;44826;51.596;5.624;2024-03-07T00:39:41;27.95;;;14.02;;
59042;SDS011;44826;51.596;5.624;2024-03-07T00:42:06;28.52;;;14.02;;
59042;SDS011;44826;51.596;5.624;2024-03-07T00:44:32;26.60;;;13.77;;
59042;SDS011;44826;51.596;5.624;2024-03-07T00:46:57;27.38;;;13.85;;
59042;SDS011;44826;51.596;5.624;2024-03-07T00:49:23;29.33;;;14.88;;
59042;SDS011;44826;51.596;5.624;2024-03-07T00:51:48;28.88;;;14.95;;
59042;SDS011;44826;51.596;5.624;2024-03-07T00:54:14;30.65;;;14.93;;
59042;SDS011;44826;51.596;5.624;2024-03-07T00:56:40;28.40;;;14.63;;
59042;SDS011;44826;51.596;5.624;2024-03-07T00:59:05;27.83;;;14.45;;
59042;SDS011;44826;51.596;5.624;2024-03-07T01:01:31;30.45;;;15.52;;
59042;SDS011;44826;51.596;5.624;2024-03-07T01:03:58;27.03;;;14.40;;
59042;SDS011;44826;51.596;5.624;2024-03-07T01:06:25;26.92;;;13.82;;
59042;SDS011;44826;51.596;5.624;2024-03-07T01:08:50;28.25;;;14.43;;
59042;SDS011;44826;51.596;5.624;2024-03-07T01:11:16;30.55;;;14.85;;
59042;SDS011;44826;51.596;5.624;2024-03-07T01:13:41;26.73;;;13.75;;
59042;SDS011;44826;51.596;5.624;2024-03-07T01:16:07;27.37;;;13.97;;
59042;SDS011;44826;51.596;5.624;2024-03-07T01:18:33;27.27;;;13.60;;
59042;SDS011;44826;51.596;5.624;2024-03-07T01:20:59;28.33;;;13.87;;
59042;SDS011;44826;51.596;5.624;2024-03-07T01:23:25;29.83;;;14.33;;
59042;SDS011;44826;51.596;5.624;2024-03-07T01:25:50;29.67;;;14.90;;
59042;SDS011;44826;51.596;5.624;2024-03-07T01:28:15;27.13;;;14.07;;
59042;SDS011;44826;51.596;5.624;2024-03-07T01:30:42;28.20;;;14.50;;
59042;SDS011;44826;51.596;5.624;2024-03-07T01:33:07;31.77;;;14.80;;
59042;SDS011;44826;51.596;5.624;2024-03-07T01:35:33;27.23;;;13.82;;
59042;SDS011;44826;51.596;5.624;2024-03-07T01:37:58;28.37;;;14.50;;
59042;SDS011;44826;51.596;5.624;2024-03-07T01:40:23;25.83;;;14.03;;
59042;SDS011;44826;51.596;5.624;2024-03-07T01:42:51;29.48;;;14.75;;
59042;SDS011;44826;51.596;5.624;2024-03-07T01:45:17;28.17;;;14.23;;
59042;SDS011;44826;51.596;5.624;2024-03-07T01:47:43;28.07;;;14.23;;
59042;SDS011;44826;51.596;5.624;2024-03-07T01:50:09;28.13;;;14.03;;
59042;SDS011;44826;51.596;5.624;2024-03-07T01:52:34;31.70;;;14.37;;
59042;SDS011;44826;51.596;5.624;2024-03-07T01:55:01;34.03;;;13.67;;
59042;SDS011;44826;51.596;5.624;2024-03-07T01:57:27;30.10;;;15.00;;
59042;SDS011;44826;51.596;5.624;2024-03-07T01:59:53;28.87;;;13.63;;
59042;SDS011;44826;51.596;5.624;2024-03-07T02:02:19;30.30;;;15.17;;
59042;SDS011;44826;51.596;5.624;2024-03-07T02:04:45;29.20;;;13.97;;
59042;SDS011;44826;51.596;5.624;2024-03-07T02:07:10;31.70;;;15.07;;
59042;SDS011;44826;51.596;5.624;2024-03-07T02:09:38;33.27;;;15.43;;
59042;SDS011;44826;51.596;5.624;2024-03-07T02:12:03;29.27;;;13.97;;
59042;SDS011;44826;51.596;5.624;2024-03-07T02:14:29;27.70;;;14.23;;
59042;SDS011;44826;51.596;5.624;2024-03-07T02:16:54;29.43;;;14.30;;
59042;SDS011;44826;51.596;5.624;2024-03-07T02:19:21;29.03;;;14.43;;
59042;SDS011;44826;51.596;5.624;2024-03-07T02:21:47;28.83;;;14.33;;
59042;SDS011;44826;51.596;5.624;2024-03-07T02:24:12;29.65;;;14.57;;
59042;SDS011;44826;51.596;5.624;2024-03-07T02:26:39;29.30;;;14.37;;
59042;SDS011;44826;51.596;5.624;2024-03-07T02:29:04;30.37;;;14.60;;
59042;SDS011;44826;51.596;5.624;2024-03-07T02:31:30;31.47;;;14.90;;
59042;SDS011;44826;51.596;5.624;2024-03-07T02:34:02;30.42;;;14.63;;
59042;SDS011;44826;51.596;5.624;2024-03-07T02:36:28;29.87;;;14.90;;
59042;SDS011;44826;51.596;5.624;2024-03-07T02:38:54;30.10;;;15.43;;
59042;SDS011;44826;51.596;5.624;2024-03-07T02:41:19;33.10;;;15.73;;
59042;SDS011;44826;51.596;5.624;2024-03-07T02:43:44;30.50;;;14.63;;
59042;SDS011;44826;51.596;5.624;2024-03-07T02:46:10;32.27;;;15.60;;
59042;SDS011;44826;51.596;5.624;2024-03-07T02:48:36;31.43;;;15.70;;
59042;SDS011;44826;51.596;5.624;2024-03-07T02:51:02;31.73;;;16.00;;
59042;SDS011;44826;51.596;5.624;2024-03-07T02:53:30;32.90;;;16.43;;
59042;SDS011;44826;51.596;5.624;2024-03-07T02:55:56;31.13;;;15.40;;
59042;SDS011;44826;51.596;5.624;2024-03-07T02:58:21;29.70;;;15.27;;
59042;SDS011;44826;51.596;5.624;2024-03-07T03:00:47;31.90;;;15.90;;
59042;SDS011;44826;51.596;5.624;2024-03-07T03:03:14;33.15;;;15.38;;
59042;SDS011;44826;51.596;5.624;2024-03-07T03:05:39;33.17;;;15.97;;
59042;SDS011;44826;51.596;5.624;2024-03-07T03:08:04;35.03;;;15.83;;
59042;SDS011;44826;51.596;5.624;2024-03-07T03:10:32;34.43;;;15.87;;
59042;SDS011;44826;51.596;5.624;2024-03-07T03:12:58;31.87;;;15.97;;
59042;SDS011;44826;51.596;5.624;2024-03-07T03:15:24;31.90;;;15.43;;
59042;SDS011;44826;51.596;5.624;2024-03-07T03:17:50;33.20;;;16.30;;
59042;SDS011;44826;51.596;5.624;2024-03-07T03:20:17;32.03;;;15.70;;
59042;SDS011;44826;51.596;5.624;2024-03-07T03:22:58;30.00;;;14.27;;
59042;SDS011;44826;51.596;5.624;2024-03-07T03:25:24;29.80;;;14.07;;
59042;SDS011;44826;51.596;5.624;2024-03-07T03:27:49;29.27;;;15.10;;
59042;SDS011;44826;51.596;5.624;2024-03-07T03:30:15;31.10;;;14.27;;
59042;SDS011;44826;51.596;5.624;2024-03-07T03:32:43;28.20;;;15.17;;
59042;SDS011;44826;51.596;5.624;2024-03-07T03:35:12;31.40;;;15.47;;
59042;SDS011;44826;51.596;5.624;2024-03-07T03:37:43;30.97;;;15.60;;
59042;SDS011;44826;51.596;5.624;2024-03-07T03:40:09;30.70;;;15.57;;
59042;SDS011;44826;51.596;5.624;2024-03-07T03:42:36;32.00;;;16.07;;
59042;SDS011;44826;51.596;5.624;2024-03-07T03:45:02;31.50;;;15.00;;
59042;SDS011;44826;51.596;5.624;2024-03-07T03:47:32;29.63;;;15.10;;
59042;SDS011;44826;51.596;5.624;2024-03-07T03:49:58;29.50;;;14.73;;
59042;SDS011;44826;51.596;5.624;2024-03-07T03:52:24;31.57;;;15.43;;
59042;SDS011;44826;51.596;5.624;2024-03-07T03:54:51;31.07;;;15.17;;
59042;SDS011;44826;51.596;5.624;2024-03-07T03:57:16;28.37;;;15.00;;
59042;SDS011;44826;51.596;5.624;2024-03-07T03:59:43;31.50;;;15.63;;
59042;SDS011;44826;51.596;5.624;2024-03-07T04:02:09;31.93;;;16.30;;
59042;SDS011;44826;51.596;5.624;2024-03-07T04:04:38;32.40;;;16.10;;
59042;SDS011;44826;51.596;5.624;2024-03-07T04:07:04;32.43;;;15.93;;
59042;SDS011;44826;51.596;5.624;2024-03-07T04:09:29;31.40;;;16.57;;
59042;SDS011;44826;51.596;5.624;2024-03-07T04:11:55;32.43;;;16.03;;
59042;SDS011;44826;51.596;5.624;2024-03-07T04:14:20;30.47;;;15.30;;
59042;SDS011;44826;51.596;5.624;2024-03-07T04:16:45;33.00;;;16.30;;
59042;SDS011;44826;51.596;5.624;2024-03-07T04:19:10;32.03;;;15.53;;
59042;SDS011;44826;51.596;5.624;2024-03-07T04:21:36;27.97;;;14.47;;
59042;SDS011;44826;51.596;5.624;2024-03-07T04:24:02;33.13;;;16.07;;
59042;SDS011;44826;51.596;5.624;2024-03-07T04:26:28;30.20;;;14.53;;
59042;SDS011;44826;51.596;5.624;2024-03-07T04:28:53;31.60;;;15.67;;
59042;SDS011;44826;51.596;5.624;2024-03-07T04:31:18;32.10;;;15.90;;
59042;SDS011;44826;51.596;5.624;2024-03-07T04:33:44;31.23;;;15.20;;
59042;SDS011;44826;51.596;5.624;2024-03-07T04:36:09;32.70;;;15.77;;
59042;SDS011;44826;51.596;5.624;2024-03-07T04:38:34;33.27;;;16.40;;
59042;SDS011;44826;51.596;5.624;2024-03-07T04:40:59;31.57;;;16.03;;
59042;SDS011;44826;51.596;5.624;2024-03-07T04:43:25;32.80;;;15.57;;
59042;SDS011;44826;51.596;5.624;2024-03-07T04:45:51;35.33;;;16.33;;
59042;SDS011;44826;51.596;5.624;2024-03-07T04:48:16;39.53;;;16.37;;
59042;SDS011;44826;51.596;5.624;2024-03-07T04:50:41;32.70;;;16.20;;
59042;SDS011;44826;51.596;5.624;2024-03-07T04:53:07;30.47;;;15.53;;
59042;SDS011;44826;51.596;5.624;2024-03-07T04:55:32;32.87;;;16.30;;
59042;SDS011;44826;51.596;5.624;2024-03-07T04:57:58;30.40;;;15.60;;
59042;SDS011;44826;51.596;5.624;2024-03-07T05:00:24;29.47;;;15.23;;
59042;SDS011;44826;51.596;5.624;2024-03-07T05:02:49;31.73;;;15.47;;
59042;SDS011;44826;51.596;5.624;2024-03-07T05:05:15;30.10;;;15.43;;
59042;SDS011;44826;51.596;5.624;2024-03-07T05:07:47;30.63;;;15.45;;
59042;SDS011;44826;51.596;5.624;2024-03-07T05:10:14;31.33;;;15.17;;
59042;SDS011;44826;51.596;5.624;2024-03-07T05:12:40;32.23;;;15.77;;
59042;SDS011;44826;51.596;5.624;2024-03-07T05:15:05;31.60;;;15.93;;
59042;SDS011;44826;51.596;5.624;2024-03-07T05:17:31;30.67;;;15.80;;
59042;SDS011;44826;51.596;5.624;2024-03-07T05:19:59;33.80;;;16.20;;
59042;SDS011;44826;51.596;5.624;2024-03-07T05:22:25;34.37;;;17.37;;
59042;SDS011;44826;51.596;5.624;2024-03-07T05:24:51;33.43;;;16.03;;
59042;SDS011;44826;51.596;5.624;2024-03-07T05:27:17;34.27;;;16.37;;
59042;SDS011;44826;51.596;5.624;2024-03-07T05:29:42;33.90;;;16.27;;
59042;SDS011;44826;51.596;5.624;2024-03-07T05:32:20;34.47;;;16.63;;
59042;SDS011;44826;51.596;5.624;2024-03-07T05:34:47;32.37;;;15.57;;
59042;SDS011;44826;51.596;5.624;2024-03-07T05:37:12;34.97;;;16.93;;
59042;SDS011;44826;51.596;5.624;2024-03-07T05:39:38;33.53;;;16.27;;
59042;SDS011;44826;51.596;5.624;2024-03-07T05:42:03;31.53;;;16.70;;
59042;SDS011;44826;51.596;5.624;2024-03-07T05:44:29;33.37;;;17.03;;
59042;SDS011;44826;51.596;5.624;2024-03-07T05:46:54;35.37;;;16.07;;
59042;SDS011;44826;51.596;5.624;2024-03-07T05:49:19;33.13;;;16.00;;
59042;SDS011;44826;51.596;5.624;2024-03-07T05:51:47;30.33;;;15.93;;
59042;SDS011;44826;51.596;5.624;2024-03-07T05:54:13;33.33;;;16.60;;
59042;SDS011;44826;51.596;5.624;2024-03-07T05:56:39;34.80;;;17.17;;
59042;SDS011;44826;51.596;5.624;2024-03-07T05:59:06;32.33;;;16.47;;
59042;SDS011;44826;51.596;5.624;2024-03-07T06:01:35;31.83;;;15.60;;
59042;SDS011;44826;51.596;5.624;2024-03-07T06:04:01;33.00;;;17.07;;
59042;SDS011;44826;51.596;5.624;2024-03-07T06:06:27;32.53;;;16.90;;
59042;SDS011;44826;51.596;5.624;2024-03-07T06:08:53;33.70;;;16.77;;
59042;SDS011;44826;51.596;5.624;2024-03-07T06:11:18;31.33;;;16.60;;
59042;SDS011;44826;51.596;5.624;2024-03-07T06:13:46;32.40;;;16.47;;
59042;SDS011;44826;51.596;5.624;2024-03-07T06:16:12;32.93;;;16.43;;
59042;SDS011;44826;51.596;5.624;2024-03-07T06:18:39;32.90;;;16.30;;
59042;SDS011;44826;51.596;5.624;2024-03-07T06:21:07;34.33;;;17.57;;
59042;SDS011;44826;51.596;5.624;2024-03-07T06:23:33;32.67;;;16.47;;
59042;SDS011;44826;51.596;5.624;2024-03-07T06:25:59;33.37;;;16.37;;
59042;SDS011;44826;51.596;5.624;2024-03-07T06:28:25;31.87;;;16.07;;
59042;SDS011;44826;51.596;5.624;2024-03-07T06:30:53;32.67;;;15.57;;
59042;SDS011;44826;51.596;5.624;2024-03-07T06:33:20;31.27;;;15.87;;
59042;SDS011;44826;51.596;5.624;2024-03-07T06:35:46;35.77;;;17.20;;
59042;SDS011;44826;51.596;5.624;2024-03-07T06:38:11;32.77;;;16.17;;
59042;SDS011;44826;51.596;5.624;2024-03-07T06:40:37;32.33;;;17.10;;
59042;SDS011;44826;51.596;5.624;2024-03-07T06:43:05;31.10;;;15.67;;
59042;SDS011;44826;51.596;5.624;2024-03-07T06:45:32;32.67;;;17.00;;
59042;SDS011;44826;51.596;5.624;2024-03-07T06:47:57;34.03;;;16.60;;
59042;SDS011;44826;51.596;5.624;2024-03-07T06:50:23;32.77;;;16.00;;
59042;SDS011;44826;51.596;5.624;2024-03-07T06:52:48;33.07;;;16.43;;
59042;SDS011;44826;51.596;5.624;2024-03-07T06:55:17;29.97;;;15.63;;
59042;SDS011;44826;51.596;5.624;2024-03-07T06:57:46;33.50;;;16.13;;
59042;SDS011;44826;51.596;5.624;2024-03-07T07:00:12;33.00;;;16.10;;
59042;SDS011;44826;51.596;5.624;2024-03-07T07:02:43;34.42;;;16.33;;
59042;SDS011;44826;51.596;5.624;2024-03-07T07:05:09;31.70;;;15.90;;
59042;SDS011;44826;51.596;5.624;2024-03-07T07:07:43;30.70;;;16.27;;
59042;SDS011;44826;51.596;5.624;2024-03-07T07:10:12;34.55;;;16.38;;
59042;SDS011;44826;51.596;5.624;2024-03-07T07:12:43;34.05;;;15.85;;
59042;SDS011;44826;51.596;5.624;2024-03-07T07:15:10;28.43;;;15.67;;
59042;SDS011;44826;51.596;5.624;2024-03-07T07:17:37;30.07;;;15.47;;
59042;SDS011;44826;51.596;5.624;2024-03-07T07:20:03;33.00;;;16.50;;
59042;SDS011;44826;51.596;5.624;2024-03-07T07:22:35;34.80;;;16.60;;
59042;SDS011;44826;51.596;5.624;2024-03-07T07:25:02;30.50;;;15.93;;
59042;SDS011;44826;51.596;5.624;2024-03-07T07:27:29;35.73;;;17.97;;
59042;SDS011;44826;51.596;5.624;2024-03-07T07:29:55;33.27;;;16.27;;
59042;SDS011;44826;51.596;5.624;2024-03-07T07:32:20;33.73;;;16.97;;
59042;SDS011;44826;51.596;5.624;2024-03-07T07:34:48;32.70;;;16.53;;
59042;SDS011;44826;51.596;5.624;2024-03-07T07:37:13;35.70;;;17.87;;
59042;SDS011;44826;51.596;5.624;2024-03-07T07:39:39;32.93;;;17.23;;
59042;SDS011;44826;51.596;5.624;2024-03-07T07:42:04;34.77;;;18.23;;
59042;SDS011;44826;51.596;5.624;2024-03-07T07:44:29;32.93;;;17.90;;
59042;SDS011;44826;51.596;5.624;2024-03-07T07:46:55;43.00;;;19.77;;
59042;SDS011;44826;51.596;5.624;2024-03-07T07:49:20;38.37;;;19.10;;
59042;SDS011;44826;51.596;5.624;2024-03-07T07:51:45;36.67;;;17.77;;
59042;SDS011;44826;51.596;5.624;2024-03-07T07:54:13;37.57;;;19.10;;
59042;SDS011;44826;51.596;5.624;2024-03-07T07:56:38;33.93;;;17.87;;
59042;SDS011;44826;51.596;5.624;2024-03-07T07:59:04;32.27;;;17.23;;
59042;SDS011;44826;51.596;5.624;2024-03-07T08:01:29;36.83;;;18.53;;
59042;SDS011;44826;51.596;5.624;2024-03-07T08:03:55;32.63;;;17.60;;
59042;SDS011;44826;51.596;5.624;2024-03-07T08:06:20;33.30;;;17.53;;
59042;SDS011;44826;51.596;5.624;2024-03-07T08:08:45;32.30;;;17.63;;
59042;SDS011;44826;51.596;5.624;2024-03-07T08:11:11;35.17;;;18.33;;
59042;SDS011;44826;51.596;5.624;2024-03-07T08:13:39;34.40;;;17.87;;
59042;SDS011;44826;51.596;5.624;2024-03-07T08:16:05;34.83;;;18.60;;
59042;SDS011;44826;51.596;5.624;2024-03-07T08:18:30;34.67;;;18.60;;
59042;SDS011;44826;51.596;5.624;2024-03-07T08:20:56;34.83;;;18.90;;
59042;SDS011;44826;51.596;5.624;2024-03-07T08:23:21;35.57;;;18.10;;
59042;SDS011;44826;51.596;5.624;2024-03-07T08:25:50;34.67;;;17.00;;
59042;SDS011;44826;51.596;5.624;2024-03-07T08:28:15;29.57;;;16.63;;
59042;SDS011;44826;51.596;5.624;2024-03-07T08:30:41;33.03;;;17.50;;
59042;SDS011;44826;51.596;5.624;2024-03-07T08:33:06;34.40;;;18.17;;
59042;SDS011;44826;51.596;5.624;2024-03-07T08:35:32;34.80;;;17.50;;
59042;SDS011;44826;51.596;5.624;2024-03-07T08:37:58;33.87;;;17.87;;
59042;SDS011;44826;51.596;5.624;2024-03-07T08:42:57;30.17;;;16.77;;
59042;SDS011;44826;51.596;5.624;2024-03-07T08:45:23;28.47;;;15.50;;
59042;SDS011;44826;51.596;5.624;2024-03-07T08:47:49;30.57;;;16.70;;
59042;SDS011;44826;51.596;5.624;2024-03-07T08:50:16;29.30;;;16.43;;
59042;SDS011;44826;51.596;5.624;2024-03-07T08:52:43;29.27;;;16.73;;
59042;SDS011;44826;51.596;5.624;2024-03-07T08:55:09;28.93;;;15.60;;
59042;SDS011;44826;51.596;5.624;2024-03-07T08:57:37;29.07;;;15.80;;
59042;SDS011;44826;51.596;5.624;2024-03-07T09:00:04;29.23;;;15.07;;
59042;SDS011;44826;51.596;5.624;2024-03-07T09:02:40;27.40;;;14.83;;
59042;SDS011;44826;51.596;5.624;2024-03-07T09:05:07;28.23;;;15.77;;
59042;SDS011;44826;51.596;5.624;2024-03-07T09:07:35;30.87;;;16.00;;
59042;SDS011;44826;51.596;5.624;2024-03-07T09:10:00;30.17;;;17.23;;
59042;SDS011;44826;51.596;5.624;2024-03-07T09:12:25;27.30;;;15.40;;
59042;SDS011;44826;51.596;5.624;2024-03-07T09:14:51;28.77;;;14.87;;
59042;SDS011;44826;51.596;5.624;2024-03-07T09:17:23;26.80;;;14.45;;
59042;SDS011;44826;51.596;5.624;2024-03-07T09:19:48;26.30;;;14.93;;
59042;SDS011;44826;51.596;5.624;2024-03-07T09:22:14;24.38;;;13.88;;
59042;SDS011;44826;51.596;5.624;2024-03-07T09:24:40;27.40;;;15.27;;
59042;SDS011;44826;51.596;5.624;2024-03-07T09:27:05;24.50;;;14.35;;
59042;SDS011;44826;51.596;5.624;2024-03-07T09:29:31;25.77;;;14.13;;
59042;SDS011;44826;51.596;5.624;2024-03-07T09:31:56;25.37;;;14.27;;
59042;SDS011;44826;51.596;5.624;2024-03-07T09:34:25;27.25;;;15.88;;
59042;SDS011;44826;51.596;5.624;2024-03-07T09:36:53;30.80;;;16.20;;
59042;SDS011;44826;51.596;5.624;2024-03-07T09:39:19;25.92;;;15.15;;
59042;SDS011;44826;51.596;5.624;2024-03-07T09:41:44;24.70;;;13.75;;
59042;SDS011;44826;51.596;5.624;2024-03-07T09:44:12;26.98;;;14.50;;
59042;SDS011;44826;51.596;5.624;2024-03-07T09:46:42;26.35;;;14.90;;
59042;SDS011;44826;51.596;5.624;2024-03-07T09:49:11;28.23;;;15.10;;
59042;SDS011;44826;51.596;5.624;2024-03-07T09:51:38;26.50;;;14.15;;
59042;SDS011;44826;51.596;5.624;2024-03-07T09:54:04;25.13;;;13.88;;
59042;SDS011;44826;51.596;5.624;2024-03-07T09:56:30;25.23;;;13.43;;
59042;SDS011;44826;51.596;5.624;2024-03-07T09:59:01;21.05;;;12.00;;
59042;SDS011;44826;51.596;5.624;2024-03-07T10:01:29;22.95;;;12.27;;
59042;SDS011;44826;51.596;5.624;2024-03-07T10:03:59;22.88;;;12.70;;
59042;SDS011;44826;51.596;5.624;2024-03-07T10:06:36;26.38;;;13.63;;
59042;SDS011;44826;51.596;5.624;2024-03-07T10:09:03;26.23;;;14.88;;
59042;SDS011;44826;51.596;5.624;2024-03-07T10:11:29;23.35;;;13.77;;
59042;SDS011;44826;51.596;5.624;2024-03-07T10:13:55;27.33;;;13.85;;
59042;SDS011;44826;51.596;5.624;2024-03-07T10:16:20;22.55;;;12.95;;
59042;SDS011;44826;51.596;5.624;2024-03-07T10:18:46;25.92;;;14.65;;
59042;SDS011;44826;51.596;5.624;2024-03-07T10:21:14;23.15;;;12.65;;
59042;SDS011;44826;51.596;5.624;2024-03-07T10:23:42;24.42;;;13.25;;
59042;SDS011;44826;51.596;5.624;2024-03-07T10:26:07;24.42;;;13.70;;
59042;SDS011;44826;51.596;5.624;2024-03-07T10:28:32;26.38;;;14.40;;
59042;SDS011;44826;51.596;5.624;2024-03-07T10:30:58;22.15;;;13.13;;
59042;SDS011;44826;51.596;5.624;2024-03-07T10:33:27;22.58;;;12.65;;
59042;SDS011;44826;51.596;5.624;2024-03-07T10:35:53;23.08;;;13.02;;
59042;SDS011;44826;51.596;5.624;2024-03-07T10:38:18;22.58;;;12.90;;
59042;SDS011;44826;51.596;5.624;2024-03-07T10:40:45;23.83;;;12.95;;
59042;SDS011;44826;51.596;5.624;2024-03-07T10:43:12;21.95;;;12.43;;
59042;SDS011;44826;51.596;5.624;2024-03-07T10:45:49;19.40;;;11.07;;
59042;SDS011;44826;51.596;5.624;2024-03-07T10:48:17;22.75;;;13.23;;
59042;SDS011;44826;51.596;5.624;2024-03-07T10:53:39;23.88;;;12.75;;
59042;SDS011;44826;51.596;5.624;2024-03-07T11:02:27;19.20;;;10.68;;
59042;SDS011;44826;51.596;5.624;2024-03-07T11:04:52;21.48;;;10.93;;
59042;SDS011;44826;51.596;5.624;2024-03-07T11:07:19;19.13;;;10.93;;
59042;SDS011;44826;51.596;5.624;2024-03-07T11:09:48;21.02;;;11.10;;
59042;SDS011;44826;51.596;5.624;2024-03-07T11:12:17;18.90;;;11.07;;
59042;SDS011;44826;51.596;5.624;2024-03-07T11:14:45;21.25;;;11.23;;
59042;SDS011;44826;51.596;5.624;2024-03-07T11:17:14;19.58;;;11.30;;
59042;SDS011;44826;51.596;5.624;2024-03-07T11:19:40;20.38;;;11.45;;
59042;SDS011;44826;51.596;5.624;2024-03-07T11:22:06;18.67;;;11.35;;
59042;SDS011;44826;51.596;5.624;2024-03-07T11:24:40;21.50;;;11.43;;
59042;SDS011;44826;51.596;5.624;2024-03-07T11:27:08;20.63;;;11.43;;
59042;SDS011;44826;51.596;5.624;2024-03-07T11:29:38;18.67;;;11.15;;
59042;SDS011;44826;51.596;5.624;2024-03-07T11:32:08;20.02;;;11.45;;
59042;SDS011;44826;51.596;5.624;2024-03-07T11:34:37;22.38;;;12.35;;
59042;SDS011;44826;51.596;5.624;2024-03-07T11:37:06;19.75;;;11.35;;
59042;SDS011;44826;51.596;5.624;2024-03-07T11:39:42;20.10;;;11.40;;
59042;SDS011;44826;51.596;5.624;2024-03-07T11:42:28;20.35;;;11.30;;
59042;SDS011;44826;51.596;5.624;2024-03-07T11:44:56;20.13;;;11.57;;
59042;SDS011;44826;51.596;5.624;2024-03-07T11:47:23;20.58;;;11.48;;
59042;SDS011;44826;51.596;5.624;2024-03-07T11:49:50;21.63;;;12.25;;
59042;SDS011;44826;51.596;5.624;2024-03-07T11:52:17;22.65;;;12.77;;
59042;SDS011;44826;51.596;5.624;2024-03-07T11:54:43;21.98;;;12.63;;
59042;SDS011;44826;51.596;5.624;2024-03-07T11:57:17;22.92;;;12.55;;
59042;SDS011;44826;51.596;5.624;2024-03-07T11:59:57;21.95;;;11.85;;
59042;SDS011;44826;51.596;5.624;2024-03-07T12:02:26;21.63;;;12.43;;
59042;SDS011;44826;51.596;5.624;2024-03-07T12:04:52;23.88;;;12.35;;
59042;SDS011;44826;51.596;5.624;2024-03-07T12:07:18;20.83;;;12.27;;
59042;SDS011;44826;51.596;5.624;2024-03-07T12:09:44;22.55;;;12.25;;
59042;SDS011;44826;51.596;5.624;2024-03-07T12:12:16;21.33;;;12.20;;
59042;SDS011;44826;51.596;5.624;2024-03-07T12:14:42;21.33;;;12.02;;
59042;SDS011;44826;51.596;5.624;2024-03-07T12:17:08;21.38;;;11.77;;
59042;SDS011;44826;51.596;5.624;2024-03-07T12:19:34;20.38;;;11.52;;
59042;SDS011;44826;51.596;5.624;2024-03-07T12:22:03;20.13;;;11.70;;
59042;SDS011;44826;51.596;5.624;2024-03-07T12:24:34;20.48;;;11.40;;
59042;SDS011;44826;51.596;5.624;2024-03-07T12:27:12;17.58;;;10.27;;
59042;SDS011;44826;51.596;5.624;2024-03-07T12:29:40;18.58;;;10.73;;
59042;SDS011;44826;51.596;5.624;2024-03-07T12:32:07;19.52;;;11.02;;
59042;SDS011;44826;51.596;5.624;2024-03-07T12:34:36;20.27;;;11.73;;
59042;SDS011;44826;51.596;5.624;2024-03-07T12:37:06;18.30;;;11.25;;
59042;SDS011;44826;51.596;5.624;2024-03-07T12:39:32;19.50;;;11.20;;
59042;SDS011;44826;51.596;5.624;2024-03-07T12:42:04;17.77;;;10.93;;
59042;SDS011;44826;51.596;5.624;2024-03-07T12:44:40;17.60;;;10.27;;
59042;SDS011;44826;51.596;5.624;2024-03-07T12:47:08;18.50;;;10.18;;
59042;SDS011;44826;51.596;5.624;2024-03-07T12:49:35;20.15;;;11.32;;
59042;SDS011;44826;51.596;5.624;2024-03-07T12:52:00;19.05;;;10.55;;
59042;SDS011;44826;51.596;5.624;2024-03-07T12:54:25;19.05;;;10.93;;
59042;SDS011;44826;51.596;5.624;2024-03-07T12:56:52;18.70;;;10.55;;
59042;SDS011;44826;51.596;5.624;2024-03-07T12:59:17;16.73;;;10.20;;
59042;SDS011;44826;51.596;5.624;2024-03-07T13:01:48;16.80;;;10.43;;
59042;SDS011;44826;51.596;5.624;2024-03-07T13:04:14;17.50;;;9.95;;
59042;SDS011;44826;51.596;5.624;2024-03-07T13:06:40;18.73;;;10.05;;
59042;SDS011;44826;51.596;5.624;2024-03-07T13:09:09;17.15;;;9.55;;
59042;SDS011;44826;51.596;5.624;2024-03-07T13:11:37;17.13;;;10.20;;
59042;SDS011;44826;51.596;5.624;2024-03-07T13:14:06;20.27;;;11.05;;
59042;SDS011;44826;51.596;5.624;2024-03-07T13:16:32;18.05;;;11.05;;
59042;SDS011;44826;51.596;5.624;2024-03-07T13:18:57;19.65;;;11.43;;
59042;SDS011;44826;51.596;5.624;2024-03-07T13:21:23;18.38;;;11.07;;
59042;SDS011;44826;51.596;5.624;2024-03-07T13:23:48;18.15;;;11.38;;
59042;SDS011;44826;51.596;5.624;2024-03-07T13:26:16;19.17;;;11.45;;
59042;SDS011;44826;51.596;5.624;2024-03-07T13:28:48;16.92;;;10.48;;
59042;SDS011;44826;51.596;5.624;2024-03-07T13:31:14;17.58;;;10.82;;
59042;SDS011;44826;51.596;5.624;2024-03-07T13:33:43;18.83;;;10.55;;
59042;SDS011;44826;51.596;5.624;2024-03-07T13:36:09;17.27;;;11.38;;
59042;SDS011;44826;51.596;5.624;2024-03-07T13:38:35;17.30;;;11.13;;
59042;SDS011;44826;51.596;5.624;2024-03-07T13:41:01;16.42;;;10.93;;
59042;SDS011;44826;51.596;5.624;2024-03-07T13:43:30;16.85;;;10.10;;
59042;SDS011;44826;51.596;5.624;2024-03-07T13:45:58;18.08;;;11.05;;
59042;SDS011;44826;51.596;5.624;2024-03-07T13:48:24;17.42;;;10.85;;
59042;SDS011;44826;51.596;5.624;2024-03-07T13:50:49;16.45;;;10.77;;
59042;SDS011;44826;51.596;5.624;2024-03-07T13:53:15;17.27;;;10.90;;
59042;SDS011;44826;51.596;5.624;2024-03-07T13:56:02;17.58;;;11.20;;
59042;SDS011;44826;51.596;5.624;2024-03-07T14:01:44;20.15;;;11.68;;
59042;SDS011;44826;51.596;5.624;2024-03-07T14:29:50;18.65;;;12.60;;
59042;SDS011;44826;51.596;5.624;2024-03-07T14:32:32;18.38;;;10.93;;
59042;SDS011;44826;51.596;5.624;2024-03-07T14:37:54;20.27;;;11.60;;
59042;SDS011;44826;51.596;5.624;2024-03-07T14:40:26;18.90;;;12.52;;
59042;SDS011;44826;51.596;5.624;2024-03-07T14:42:53;17.70;;;11.95;;
59042;SDS011;44826;51.596;5.624;2024-03-07T14:45:22;20.73;;;11.75;;
59042;SDS011;44826;51.596;5.624;2024-03-07T14:47:54;18.25;;;10.98;;
59042;SDS011;44826;51.596;5.624;2024-03-07T14:50:21;17.85;;;11.07;;
59042;SDS011;44826;51.596;5.624;2024-03-07T14:52:49;18.33;;;11.82;;
59042;SDS011;44826;51.596;5.624;2024-03-07T14:55:15;18.27;;;12.35;;
59042;SDS011;44826;51.596;5.624;2024-03-07T14:57:43;19.73;;;12.00;;
59042;SDS011;44826;51.596;5.624;2024-03-07T15:00:10;19.98;;;12.65;;
59042;SDS011;44826;51.596;5.624;2024-03-07T15:02:47;23.30;;;12.80;;